Time;durP1;ratioP1;P1;durP2;ratioP2;P2;SDS_P1;SDS_P2;PMS_P1;PMS_P2;Temp;Humidity;BMP_temperature;BMP_pressure;BME280_temperature;BME280_humidity;BME280_pressure;Samples;Min_cycle;Max_cycle;Signal;HPM_P1;HPM_P2
2022/06/22 00:01:43;;;;;;;6.35;2.90;;;;;;;27.06;39.67;98052.88;4995457;28;20475;-77
2022/06/22 00:04:24;;;;;;;5.75;2.80;;;;;;;27.08;39.51;98053.44;5012386;28;20026;-77
2022/06/22 00:07:06;;;;;;;7.88;2.90;;;;;;;27.04;39.85;98054.94;4997225;28;20488;-78
2022/06/22 00:09:39;;;;;;;10.13;3.22;;;;;;;27.03;40.01;98051.47;5012008;28;20463;-77
2022/06/22 00:12:05;;;;;;;7.45;3.45;;;;;;;27.06;39.94;98056.34;5012287;28;20066;-77
2022/06/22 00:14:45;;;;;;;8.18;3.20;;;;;;;27.02;39.92;98051.72;4996144;28;20460;-77
2022/06/22 00:17:20;;;;;;;9.02;3.20;;;;;;;27.01;40.13;98068.81;4996021;28;20417;-77
2022/06/22 00:19:47;;;;;;;8.75;2.80;;;;;;;26.98;40.20;98069.28;5012296;28;20034;-77
2022/06/22 00:22:21;;;;;;;7.55;3.00;;;;;;;26.95;40.01;98070.63;5012185;28;20033;-77
2022/06/22 00:24:53;;;;;;;15.38;3.38;;;;;;;26.97;40.13;98070.38;4996364;28;20037;-77
2022/06/22 00:27:26;;;;;;;10.18;2.90;;;;;;;26.94;40.58;98070.84;4996172;28;20037;-76
2022/06/22 00:30:09;;;;;;;6.80;2.85;;;;;;;26.96;40.59;98082.13;5012536;28;20095;-77
2022/06/22 00:32:35;;;;;;;6.97;3.00;;;;;;;26.97;40.17;98081.09;5013573;28;20038;-76
2022/06/22 00:35:35;;;;;;;10.55;2.90;;;;;;;26.95;40.11;98075.97;4995579;28;20080;-77
2022/06/22 00:38:00;;;;;;;8.00;2.85;;;;;;;26.92;39.96;98072.97;5013055;28;20032;-76
2022/06/22 00:40:26;;;;;;;13.35;3.47;;;;;;;26.93;40.40;98072.72;5012175;28;20116;-77
2022/06/22 00:42:51;;;;;;;8.30;3.10;;;;;;;26.94;40.36;98068.16;5011844;28;20026;-77
2022/06/22 00:45:23;;;;;;;10.48;3.08;;;;;;;26.93;40.23;98078.06;5011745;28;20492;-77
2022/06/22 00:48:21;;;;;;;8.90;2.95;;;;;;;26.91;40.14;98069.44;4995587;28;20397;-76
2022/06/22 00:50:52;;;;;;;8.55;3.53;;;;;;;26.89;40.47;98071.56;5011488;28;20069;-71
2022/06/22 00:53:28;;;;;;;9.07;3.10;;;;;;;26.88;40.58;98078.78;5011519;28;20424;-69
2022/06/22 00:55:57;;;;;;;7.18;3.05;;;;;;;26.86;40.31;98066.69;4996119;28;20042;-69
2022/06/22 00:58:41;;;;;;;7.18;3.17;;;;;;;26.83;40.91;98072.53;5011410;28;20037;-69
2022/06/22 01:01:08;;;;;;;6.55;3.20;;;;;;;26.80;40.30;98076.47;5012295;28;20512;-68
2022/06/22 01:03:39;;;;;;;13.02;3.42;;;;;;;26.77;40.83;98079.63;5011282;28;20536;-68
2022/06/22 01:06:14;;;;;;;8.15;3.13;;;;;;;26.77;40.58;98078.81;5011569;28;20022;-69
2022/06/22 01:08:44;;;;;;;5.20;2.95;;;;;;;26.76;41.00;98074.50;5011399;28;20133;-69
2022/06/22 01:14:07;;;;;;;7.50;3.10;;;;;;;26.71;40.98;98080.59;4990903;28;20046;-69
2022/06/22 01:16:36;;;;;;;8.18;3.35;;;;;;;26.68;40.79;98095.25;4959078;28;20092;-69
2022/06/22 01:19:03;;;;;;;;;;;;;;;26.65;40.96;98105.66;4974919;28;20050;-69
2022/06/22 01:21:30;;;;;;;;;;;;;;;26.62;41.46;98098.84;4991163;28;19921;-69
2022/06/22 01:24:05;;;;;;;8.80;3.00;;;;;;;26.57;41.26;98089.91;4990676;28;20029;-69
2022/06/22 01:27:12;;;;;;;6.45;3.05;;;;;;;26.59;41.44;98093.97;4974442;28;20101;-68
2022/06/22 01:29:49;;;;;;;14.18;3.33;;;;;;;26.59;41.41;98102.00;4990269;28;20042;-69
2022/06/22 01:32:15;;;;;;;6.82;2.85;;;;;;;26.54;41.61;98102.72;4959000;28;20030;-68
2022/06/22 01:34:44;;;;;;;11.95;3.40;;;;;;;26.56;41.52;98107.03;4990797;28;20532;-69
2022/06/22 01:37:15;;;;;;;10.23;3.00;;;;;;;26.55;41.58;98111.53;4974427;28;20512;-68
2022/06/22 01:39:41;;;;;;;7.78;3.25;;;;;;;26.49;41.29;98107.97;4958655;28;20485;-69
2022/06/22 01:42:31;;;;;;;6.97;2.80;;;;;;;26.50;41.39;98106.09;4990433;28;20038;-70
2022/06/22 01:45:11;;;;;;;7.35;3.00;;;;;;;26.49;41.40;98099.13;4974368;28;20038;-70
2022/06/22 01:48:09;;;;;;;13.40;3.03;;;;;;;26.50;41.52;98106.94;4959964;28;20033;-70
2022/06/22 01:50:57;;;;;;;6.70;2.85;;;;;;;26.50;41.69;98114.13;4975447;28;20560;-69
2022/06/22 01:53:39;;;;;;;;;;;;;;;26.50;41.50;98108.78;5010872;28;20041;-67
2022/06/22 01:56:10;;;;;;;9.32;3.17;;;;;;;26.44;41.37;98104.34;5012541;28;19909;-69
2022/06/22 01:59:02;;;;;;;11.30;2.90;;;;;;;26.40;41.31;98106.69;5010821;28;20033;-69
2022/06/22 02:01:37;;;;;;;5.28;2.80;;;;;;;26.41;41.45;98102.16;5012222;28;20057;-70
2022/06/22 02:04:08;;;;;;;6.72;2.80;;;;;;;26.41;41.39;98107.50;5014922;28;20073;-69
2022/06/22 02:09:30;;;;;;;10.38;3.25;;;;;;;26.39;41.30;98104.25;5015638;28;20123;-69
2022/06/22 02:12:18;;;;;;;8.45;3.00;;;;;;;26.38;41.58;98106.13;5014651;28;20036;-70
2022/06/22 02:14:46;;;;;;;10.15;2.95;;;;;;;26.34;41.29;98107.63;5014218;28;20496;-69
2022/06/22 02:17:13;;;;;;;8.00;3.50;;;;;;;26.29;41.59;98100.31;5014265;28;20401;-69
2022/06/22 02:19:38;;;;;;;7.75;2.95;;;;;;;26.28;41.35;98100.53;5014167;28;20030;-69
2022/06/22 02:22:04;;;;;;;10.05;3.03;;;;;;;26.30;41.70;98096.59;4997549;28;20026;-69
2022/06/22 02:24:36;;;;;;;7.05;3.20;;;;;;;26.28;41.43;98101.38;5015490;28;20100;-69
2022/06/22 02:27:11;;;;;;;8.65;3.40;;;;;;;26.24;41.61;98096.72;4997573;28;20034;-69
2022/06/22 02:29:39;;;;;;;9.57;3.53;;;;;;;26.22;41.34;98098.78;5013932;28;20037;-68
2022/06/22 02:32:07;;;;;;;7.95;3.30;;;;;;;26.23;41.54;98103.13;5014161;28;20083;-69
2022/06/22 02:34:32;;;;;;;7.53;3.50;;;;;;;26.23;41.36;98109.25;5014158;28;20551;-68
2022/06/22 02:37:00;;;;;;;10.88;4.55;;;;;;;26.24;41.59;98102.06;4997445;28;20029;-69
2022/06/22 02:39:26;;;;;;;9.55;4.20;;;;;;;26.24;41.41;98102.06;5013880;28;20037;-69
2022/06/22 02:44:39;;;;;;;6.57;3.70;;;;;;;26.23;41.36;98095.09;4999809;28;20056;-69
2022/06/22 02:47:25;;;;;;;5.90;3.10;;;;;;;26.21;41.21;98086.50;4997460;28;20292;-69
2022/06/22 02:49:59;;;;;;;6.15;3.55;;;;;;;26.22;41.38;98093.44;5013719;28;20405;-71
2022/06/22 02:52:30;;;;;;;9.68;3.78;;;;;;;26.25;41.23;98092.97;5013557;28;20489;-69
2022/06/22 02:54:56;;;;;;;6.50;3.30;;;;;;;26.23;41.16;98090.53;4997947;28;20088;-69
2022/06/22 02:57:46;;;;;;;9.30;3.55;;;;;;;26.26;41.21;98097.28;5013460;28;20481;-69
2022/06/22 03:00:15;;;;;;;6.88;3.60;;;;;;;26.27;41.31;98102.41;5013537;28;20033;-69
2022/06/22 03:02:43;;;;;;;5.32;3.28;;;;;;;26.25;41.16;98093.81;4997429;28;20109;-69
2022/06/22 03:05:09;;;;;;;14.82;3.50;;;;;;;26.29;41.05;98102.19;4997331;28;20503;-70
2022/06/22 03:07:37;;;;;;;11.35;4.20;;;;;;;26.32;40.98;98099.03;4996717;28;20032;-70
2022/06/22 03:10:04;;;;;;;10.90;3.47;;;;;;;26.38;40.96;98102.63;4997505;28;20382;-68
2022/06/22 03:12:29;;;;;;;6.82;3.50;;;;;;;26.38;40.96;98092.75;4996953;28;20034;-70
2022/06/22 03:15:02;;;;;;;12.25;3.10;;;;;;;26.47;40.45;98102.03;4996198;28;20041;-68
2022/06/22 03:17:33;;;;;;;8.52;3.40;;;;;;;26.49;40.52;98099.13;4996901;28;20034;-68
2022/06/22 03:20:05;;;;;;;9.95;3.70;;;;;;;26.64;40.07;98101.28;4997387;28;20034;-68
2022/06/22 03:22:39;;;;;;;6.90;3.30;;;;;;;26.81;39.89;98104.88;5012887;28;20402;-68
2022/06/22 03:25:35;;;;;;;8.95;3.40;;;;;;;26.92;39.95;98116.63;4996874;28;20030;-68
2022/06/22 03:28:04;;;;;;;8.27;3.00;;;;;;;27.35;41.69;98117.97;4972960;28;20166;-72
2022/06/22 03:30:49;;;;;;;;;;;;;;;28.02;42.38;98126.31;4973290;28;20191;-68
2022/06/22 03:33:18;;;;;;;10.15;3.00;;;;;;;28.67;39.52;98120.25;4962797;28;19926;-68
2022/06/22 03:35:49;;;;;;;9.00;3.28;;;;;;;29.18;37.81;98113.84;4972640;28;20066;-70
2022/06/22 03:38:24;;;;;;;8.77;3.53;;;;;;;29.77;36.80;98121.91;4972795;28;20446;-74
2022/06/22 03:40:52;;;;;;;14.38;3.35;;;;;;;30.39;34.65;98125.03;4956365;28;20050;-73
2022/06/22 03:43:43;;;;;;;8.93;3.63;;;;;;;30.89;33.84;98122.84;4972477;28;20030;-73
2022/06/22 03:46:37;;;;;;;11.75;3.00;;;;;;;31.62;32.53;98123.84;4972674;28;20043;-73
2022/06/22 03:49:34;;;;;;;10.45;3.00;;;;;;;32.15;31.02;98116.28;4912176;29;20032;-72
2022/06/22 03:52:06;;;;;;;6.00;3.65;;;;;;;32.73;29.78;98126.63;4912117;29;20523;-73
2022/06/22 03:55:01;;;;;;;10.68;3.28;;;;;;;33.22;28.88;98116.94;4912523;29;20056;-72
2022/06/22 03:57:27;;;;;;;9.65;3.30;;;;;;;33.76;27.92;98127.94;4912912;29;20044;-73
2022/06/22 03:59:53;;;;;;;9.77;3.25;;;;;;;34.17;27.53;98139.16;4914845;29;20551;-73
2022/06/22 04:02:19;;;;;;;6.35;2.80;;;;;;;34.67;26.79;98144.34;4914721;29;20131;-72
2022/06/22 04:04:54;;;;;;;5.70;2.80;;;;;;;35.09;26.25;98139.22;4926347;29;20058;-72
2022/06/22 04:07:20;;;;;;;7.97;3.15;;;;;;;35.26;26.29;98131.41;4938107;29;20571;-72
2022/06/22 04:09:50;;;;;;;6.40;2.70;;;;;;;35.86;25.44;98136.19;4936857;29;20055;-72
2022/06/22 04:12:44;;;;;;;7.38;2.83;;;;;;;36.46;24.81;98134.56;4921544;29;20047;-72
2022/06/22 04:15:24;;;;;;;5.97;2.50;;;;;;;37.05;24.10;98140.19;4953046;29;20042;-73
2022/06/22 04:17:51;;;;;;;6.53;2.50;;;;;;;37.49;23.31;98124.22;4936983;29;20093;-73
2022/06/22 04:20:51;;;;;;;6.18;2.85;;;;;;;37.86;22.84;98124.97;4937118;29;20133;-73
2022/06/22 04:23:58;;;;;;;4.57;2.95;;;;;;;38.40;22.04;98124.91;4926335;29;20043;-73
2022/06/22 04:26:23;;;;;;;;;;;;;;;38.90;21.80;98126.50;4902478;29;20127;-72
2022/06/22 04:28:51;;;;;;;7.38;2.50;;;;;;;39.31;21.13;98129.91;4914552;29;20339;-73
2022/06/22 04:31:20;;;;;;;5.75;2.35;;;;;;;39.76;20.68;98126.84;4883024;29;20426;-73
2022/06/22 04:33:53;;;;;;;6.72;2.55;;;;;;;40.19;20.05;98131.41;4914212;29;20044;-73
2022/06/22 04:36:34;;;;;;;11.73;2.60;;;;;;;40.59;19.42;98122.84;4898675;29;20044;-72
2022/06/22 04:39:08;;;;;;;6.30;2.35;;;;;;;41.00;18.69;98131.47;4914487;29;20036;-72
2022/06/22 04:41:38;;;;;;;10.52;2.85;;;;;;;41.28;18.89;98137.25;4914418;29;20504;-73
2022/06/22 04:44:04;;;;;;;5.43;2.38;;;;;;;41.62;18.37;98135.31;4914042;29;20040;-73
2022/06/22 04:46:32;;;;;;;11.55;2.58;;;;;;;41.94;18.11;98133.72;4914471;29;20047;-73
2022/06/22 04:49:01;;;;;;;7.63;2.40;;;;;;;42.30;17.83;98142.34;4898399;29;20079;-73
2022/06/22 04:51:29;;;;;;;12.23;2.63;;;;;;;42.49;17.87;98141.75;4898378;29;20044;-72
2022/06/22 04:54:06;;;;;;;5.57;2.05;;;;;;;42.66;17.15;98141.53;4898459;29;20044;-72
2022/06/22 04:56:35;;;;;;;10.85;2.35;;;;;;;43.06;17.00;98148.25;4898302;29;20616;-73
2022/06/22 04:59:01;;;;;;;6.13;2.00;;;;;;;43.40;16.97;98150.78;4898306;29;20123;-73
2022/06/22 05:01:29;;;;;;;7.33;2.20;;;;;;;43.79;16.60;98160.16;4898367;29;20514;-73
2022/06/22 05:04:01;;;;;;;6.00;2.30;;;;;;;44.01;16.61;98160.69;5009501;28;20378;-72
2022/06/22 05:06:40;;;;;;;7.47;2.05;;;;;;;44.26;16.10;98158.59;5011421;28;20026;-72
2022/06/22 05:09:09;;;;;;;6.30;2.35;;;;;;;44.64;15.88;98162.69;5011311;28;20501;-74
2022/06/22 05:11:44;;;;;;;6.28;1.85;;;;;;;45.04;15.46;98145.13;5011632;28;20095;-74
2022/06/22 05:14:16;;;;;;;7.15;1.92;;;;;;;45.38;15.25;98159.19;4995589;28;20040;-73
2022/06/22 05:16:54;;;;;;;10.75;2.47;;;;;;;45.70;14.86;98170.03;5011547;28;20428;-72
2022/06/22 05:19:19;;;;;;;6.25;2.20;;;;;;;46.02;14.77;98159.63;4995780;28;20036;-74
2022/06/22 05:21:45;;;;;;;6.23;1.87;;;;;;;46.43;14.56;98156.34;5011459;28;20033;-74
2022/06/22 05:24:15;;;;;;;6.25;2.33;;;;;;;46.67;13.64;98160.69;5011181;28;20497;-73
2022/06/22 05:26:41;;;;;;;4.35;2.03;;;;;;;46.97;14.03;98164.66;5011152;28;20374;-73
2022/06/22 05:29:09;;;;;;;5.03;1.87;;;;;;;47.23;13.42;98161.06;5010995;28;20056;-73
2022/06/22 05:31:38;;;;;;;6.65;1.88;;;;;;;47.45;12.88;98162.13;5027300;28;20030;-72
2022/06/22 05:34:14;;;;;;;7.82;1.90;;;;;;;47.61;13.34;98170.19;5010922;28;20473;-73
2022/06/22 05:36:45;;;;;;;6.75;1.73;;;;;;;47.81;12.89;98159.78;4978776;28;20026;-74
2022/06/22 05:39:10;;;;;;;5.40;2.00;;;;;;;48.02;12.51;98164.69;5014242;28;20033;-72
2022/06/22 05:41:38;;;;;;;8.87;2.10;;;;;;;48.23;12.71;98164.09;5015968;28;20401;-73
2022/06/22 05:44:06;;;;;;;3.85;1.70;;;;;;;48.43;12.48;98170.22;4998955;28;20030;-74
2022/06/22 05:46:31;;;;;;;10.35;1.98;;;;;;;48.59;12.05;98153.31;4998701;28;20053;-74
2022/06/22 05:48:57;;;;;;;4.95;1.88;;;;;;;48.72;11.99;98159.31;4998747;28;20116;-73
2022/06/22 05:51:41;;;;;;;6.03;1.80;;;;;;;48.82;11.96;98166.13;5014792;28;20041;-73
2022/06/22 05:54:09;;;;;;;7.00;1.90;;;;;;;48.92;11.88;98157.09;4999461;28;20117;-73
2022/06/22 05:56:39;;;;;;;6.82;2.03;;;;;;;48.62;12.31;98176.69;5016100;28;20109;-73
2022/06/22 05:59:11;;;;;;;4.30;1.80;;;;;;;47.98;12.94;98164.69;5014882;28;20096;-74
2022/06/22 06:01:59;;;;;;;6.40;1.88;;;;;;;47.94;12.73;98152.78;5014493;28;20520;-73
2022/06/22 06:04:38;;;;;;;4.22;1.88;;;;;;;48.20;12.54;98159.34;5014571;28;20022;-74
2022/06/22 06:07:28;;;;;;;5.82;1.85;;;;;;;48.37;12.67;98158.66;5015599;28;20022;-73
2022/06/22 06:09:54;;;;;;;8.32;2.17;;;;;;;48.60;12.54;98157.69;5015744;28;20038;-74
2022/06/22 06:12:22;;;;;;;8.33;1.87;;;;;;;48.69;12.31;98151.78;5015508;28;20469;-73
2022/06/22 06:14:52;;;;;;;5.82;1.50;;;;;;;48.88;12.48;98168.13;4998068;28;20037;-74
2022/06/22 06:17:46;;;;;;;8.30;1.90;;;;;;;48.92;12.19;98162.63;4997995;28;20041;-72
2022/06/22 06:20:20;;;;;;;6.23;1.90;;;;;;;49.05;12.15;98160.31;5015103;28;20042;-73
2022/06/22 06:22:45;;;;;;;5.00;1.75;;;;;;;49.06;12.22;98168.25;5014179;28;20288;-73
2022/06/22 06:28:02;;;;;;;9.40;2.17;;;;;;;48.96;12.35;98180.03;5001073;28;20029;-74
2022/06/22 06:30:35;;;;;;;4.85;1.90;;;;;;;48.94;12.31;98174.09;4997902;28;20030;-74
2022/06/22 06:33:30;;;;;;;7.85;1.85;;;;;;;48.90;12.16;98179.63;5014063;28;20032;-74
2022/06/22 06:35:59;;;;;;;6.38;1.85;;;;;;;48.87;12.53;98174.09;5015329;28;20470;-73
2022/06/22 06:38:41;;;;;;;6.40;2.00;;;;;;;48.86;12.11;98172.50;5013642;28;20029;-74
2022/06/22 06:41:22;;;;;;;5.18;1.75;;;;;;;48.72;12.39;98170.41;5014133;28;20524;-73
2022/06/22 06:43:50;;;;;;;6.80;2.00;;;;;;;48.72;12.45;98167.63;5013703;28;20060;-74
2022/06/22 06:46:21;;;;;;;5.30;1.73;;;;;;;48.70;12.20;98162.47;5014872;28;20037;-73
2022/06/22 06:48:52;;;;;;;7.75;2.00;;;;;;;48.68;12.59;98152.97;5029575;28;20488;-73
2022/06/22 06:51:18;;;;;;;7.07;2.15;;;;;;;48.70;12.31;98176.31;5013688;28;20440;-74
2022/06/22 06:53:50;;;;;;;5.22;1.95;;;;;;;48.66;12.35;98169.16;5013745;28;20033;-73
2022/06/22 06:56:25;;;;;;;5.65;2.03;;;;;;;48.57;12.45;98172.28;4998001;28;20037;-73
2022/06/22 06:58:53;;;;;;;6.32;2.00;;;;;;;48.52;12.72;98176.22;5013498;28;20022;-73
2022/06/22 07:01:21;;;;;;;6.28;2.10;;;;;;;48.49;12.87;98176.16;5013677;28;20546;-73
2022/06/22 07:03:46;;;;;;;8.55;2.03;;;;;;;48.35;13.00;98177.63;4997200;28;20080;-73
2022/06/22 07:06:12;;;;;;;6.53;2.10;;;;;;;48.24;12.41;98179.53;5013478;28;20412;-74
2022/06/22 07:08:56;;;;;;;11.20;2.40;;;;;;;48.11;12.46;98176.28;5014470;28;20472;-74
2022/06/22 07:11:33;;;;;;;4.63;2.05;;;;;;;48.01;13.09;98186.03;5013443;28;20037;-73
2022/06/22 07:14:21;;;;;;;7.80;2.17;;;;;;;47.93;13.09;98167.75;5013311;28;20033;-74
2022/06/22 07:16:47;;;;;;;8.50;2.17;;;;;;;47.84;13.19;98161.75;5013969;28;20050;-75
2022/06/22 07:19:19;;;;;;;;;;;;;;;47.61;13.43;98156.38;5013451;28;20030;-74
2022/06/22 07:21:54;;;;;;;6.93;2.60;;;;;;;47.53;13.24;98160.25;5013919;28;19913;-73
2022/06/22 07:24:33;;;;;;;8.65;2.13;;;;;;;47.42;13.49;98160.13;5013425;28;20092;-73
2022/06/22 07:27:20;;;;;;;8.02;2.30;;;;;;;46.88;13.71;98154.66;5013348;28;20022;-73
2022/06/22 07:30:11;;;;;;;8.60;2.50;;;;;;;46.67;13.86;98143.31;5029285;28;20497;-74
2022/06/22 07:32:48;;;;;;;7.32;2.33;;;;;;;46.66;14.51;98138.97;5013527;28;20540;-77
2022/06/22 07:35:20;;;;;;;4.68;2.25;;;;;;;46.61;14.50;98144.81;4997026;28;20034;-73
2022/06/22 07:37:55;;;;;;;11.52;2.85;;;;;;;46.55;14.05;98147.09;5014133;28;20551;-74
2022/06/22 07:40:25;;;;;;;6.47;2.72;;;;;;;46.43;13.94;98150.03;5013077;28;20036;-73
2022/06/22 07:42:51;;;;;;;7.88;2.90;;;;;;;46.34;14.38;98153.06;4996411;28;20116;-72
2022/06/22 07:45:19;;;;;;;7.80;2.85;;;;;;;46.26;14.22;98149.41;5012884;28;20074;-73
2022/06/22 07:48:05;;;;;;;6.70;2.45;;;;;;;46.19;15.00;98158.34;4996926;28;20026;-72
2022/06/22 07:50:39;;;;;;;8.50;2.85;;;;;;;46.06;14.58;98162.44;5012518;28;20029;-73
2022/06/22 07:53:14;;;;;;;10.30;2.78;;;;;;;46.01;14.58;98165.50;4996976;28;20040;-75
2022/06/22 07:55:52;;;;;;;7.75;2.83;;;;;;;45.95;15.00;98156.72;4996798;28;20033;-75
2022/06/22 07:58:22;;;;;;;9.80;2.90;;;;;;;45.85;14.94;98155.38;5012599;28;20401;-74
2022/06/22 08:00:52;;;;;;;9.07;2.90;;;;;;;45.78;15.51;98140.69;5012043;28;20038;-78
2022/06/22 08:03:49;;;;;;;7.78;2.55;;;;;;;45.68;15.30;98155.81;4996310;28;20038;-77
2022/06/22 08:06:38;;;;;;;6.65;2.80;;;;;;;45.53;15.18;98167.75;5012354;28;20040;-76
2022/06/22 08:09:21;;;;;;;8.05;3.20;;;;;;;45.48;15.33;98150.34;4972087;28;20054;-73
2022/06/22 08:12:02;;;;;;;7.60;3.03;;;;;;;45.37;15.72;98160.31;4972543;28;20136;-75
2022/06/22 08:14:29;;;;;;;7.75;3.30;;;;;;;45.31;15.74;98154.31;4972409;28;20074;-74
2022/06/22 08:16:57;;;;;;;8.18;3.30;;;;;;;45.22;15.68;98150.19;4971954;28;20030;-74
2022/06/22 08:19:27;;;;;;;5.40;2.95;;;;;;;45.13;16.07;98151.19;4971882;28;20034;-75
2022/06/22 08:21:52;;;;;;;6.30;3.05;;;;;;;45.05;16.08;98152.19;4972027;28;20041;-73
2022/06/22 08:24:18;;;;;;;5.77;2.70;;;;;;;45.01;15.74;98162.34;4971804;28;20039;-74
2022/06/22 08:26:44;;;;;;;6.33;2.80;;;;;;;44.91;15.87;98160.91;4972235;28;20058;-74
2022/06/22 08:29:09;;;;;;;6.47;3.20;;;;;;;44.84;15.99;98171.78;4955656;28;20435;-74
2022/06/22 08:31:41;;;;;;;7.13;2.83;;;;;;;44.75;16.17;98166.47;4971172;28;20054;-72
2022/06/22 08:34:08;;;;;;;7.13;2.80;;;;;;;44.57;16.31;98168.00;4972110;28;20041;-75
2022/06/22 08:36:38;;;;;;;12.90;3.17;;;;;;;44.44;16.42;98176.34;4971702;28;20077;-74
2022/06/22 08:39:21;;;;;;;6.38;2.90;;;;;;;44.18;16.69;98187.06;4971614;28;20039;-74
2022/06/22 08:41:49;;;;;;;5.63;3.08;;;;;;;44.24;16.48;98183.72;4955524;28;20109;-74
2022/06/22 08:44:45;;;;;;;8.57;3.13;;;;;;;43.99;16.48;98180.28;4971096;28;20042;-73
2022/06/22 08:47:47;;;;;;;8.20;3.30;;;;;;;43.31;17.18;98173.69;5025137;28;20069;-74
2022/06/22 08:50:54;;;;;;;10.90;3.08;;;;;;;42.74;17.24;98169.22;5012847;28;20267;-75
2022/06/22 08:53:58;;;;;;;8.68;3.15;;;;;;;42.34;17.44;98167.16;4971406;28;20170;-74
2022/06/22 08:56:47;;;;;;;8.63;3.35;;;;;;;41.89;18.13;98164.09;4971826;28;20507;-73
2022/06/22 08:59:12;;;;;;;6.60;3.40;;;;;;;41.67;18.36;98162.50;4971918;28;20034;-74
2022/06/22 09:01:43;;;;;;;7.90;3.55;;;;;;;41.71;18.24;98148.94;4971589;28;20122;-75
2022/06/22 09:04:12;;;;;;;7.85;3.60;;;;;;;41.56;18.83;98147.59;4971189;28;20061;-73
2022/06/22 09:06:40;;;;;;;9.48;3.83;;;;;;;41.17;19.09;98142.28;4971389;28;20067;-74
2022/06/22 09:09:23;;;;;;;9.80;4.30;;;;;;;40.79;19.40;98137.69;4971158;28;20046;-75
2022/06/22 09:12:05;;;;;;;11.48;4.20;;;;;;;40.93;19.58;98139.41;4971555;28;20038;-76
2022/06/22 09:14:49;;;;;;;7.45;4.25;;;;;;;40.91;20.01;98139.72;4942910;28;20042;-76
2022/06/22 09:17:24;;;;;;;11.65;4.93;;;;;;;40.83;20.14;98144.13;4975652;28;20510;-80
2022/06/22 09:20:17;;;;;;;8.07;4.95;;;;;;;40.73;20.24;98139.03;4975368;28;20121;-75
2022/06/22 09:22:59;;;;;;;11.90;5.32;;;;;;;40.36;20.46;98130.53;4975708;28;20030;-75
2022/06/22 09:25:45;;;;;;;8.13;5.63;;;;;;;40.07;20.96;98131.28;5015534;28;20121;-75
2022/06/22 09:28:34;;;;;;;10.00;6.33;;;;;;;39.84;21.22;98141.59;5016005;28;20029;-75
2022/06/22 09:31:27;;;;;;;9.48;6.65;;;;;;;39.55;21.56;98138.47;4962339;28;20051;-74
2022/06/22 09:34:04;;;;;;;14.15;6.57;;;;;;;39.53;21.73;98137.94;4975036;28;20031;-75
2022/06/22 09:36:35;;;;;;;12.85;6.50;;;;;;;39.68;21.42;98135.84;4975080;28;20045;-76
2022/06/22 09:39:03;;;;;;;10.57;6.88;;;;;;;39.78;21.45;98122.66;4974867;28;20138;-73
2022/06/22 09:41:58;;;;;;;17.60;7.13;;;;;;;39.72;21.63;98126.69;4974469;28;20034;-75
2022/06/22 09:44:46;;;;;;;13.10;7.40;;;;;;;39.67;21.59;98131.53;4966245;28;20654;-75
2022/06/22 09:47:49;;;;;;;14.07;7.15;;;;;;;39.82;21.55;98139.19;4958888;28;20114;-75
2022/06/22 09:50:32;;;;;;;15.35;7.63;;;;;;;39.64;21.94;98132.16;4974489;28;20062;-75
2022/06/22 09:53:16;;;;;;;10.70;7.40;;;;;;;39.66;21.71;98119.78;4974684;28;20043;-75
2022/06/22 09:58:37;;;;;;;;;;;;;;;39.68;21.59;98120.28;4961803;28;20097;-76
2022/06/22 10:01:08;;;;;;;13.13;7.93;;;;;;;39.56;21.89;98120.13;4974531;28;19921;-75
2022/06/22 10:03:48;;;;;;;9.38;7.93;;;;;;;39.49;21.82;98120.59;4974782;28;20122;-75
2022/06/22 10:06:29;;;;;;;13.63;7.97;;;;;;;39.44;22.04;98123.47;4974588;28;20031;-76
2022/06/22 10:09:00;;;;;;;14.82;8.30;;;;;;;39.59;21.74;98124.94;5010238;28;20057;-75
2022/06/22 10:11:46;;;;;;;17.90;7.82;;;;;;;39.67;22.00;98105.00;5015528;28;20592;-75
2022/06/22 10:14:35;;;;;;;15.70;7.67;;;;;;;39.63;21.73;98120.41;5014424;28;20034;-75
2022/06/22 10:17:36;;;;;;;13.63;7.57;;;;;;;39.54;21.84;98115.00;5014578;28;20038;-75
2022/06/22 10:20:14;;;;;;;9.55;7.13;;;;;;;39.38;22.27;98122.84;4961428;28;20066;-75
2022/06/22 10:22:58;;;;;;;11.55;7.05;;;;;;;39.41;22.27;98114.03;4974231;28;20038;-75
2022/06/22 10:25:42;;;;;;;14.48;6.90;;;;;;;39.35;22.27;98123.50;4958051;28;20050;-75
2022/06/22 10:28:22;;;;;;;10.48;6.78;;;;;;;39.36;22.23;98113.38;4974255;28;20038;-75
2022/06/22 10:30:53;;;;;;;18.10;7.18;;;;;;;39.31;22.35;98111.59;4958192;28;20430;-74
2022/06/22 10:33:41;;;;;;;12.23;7.05;;;;;;;39.17;22.55;98122.72;4974039;28;20121;-75
2022/06/22 10:36:26;;;;;;;15.35;6.22;;;;;;;39.06;22.69;98114.00;4974475;28;20690;-76
2022/06/22 10:39:23;;;;;;;10.38;6.13;;;;;;;38.98;22.48;98127.63;4957766;28;20118;-75
2022/06/22 10:45:09;;;;;;;10.70;5.57;;;;;;;38.75;22.97;98121.53;4935750;29;20046;-76
2022/06/22 10:47:59;;;;;;;11.57;4.88;;;;;;;38.65;23.09;98134.31;4935542;29;20118;-75
2022/06/22 10:50:29;;;;;;;9.38;4.88;;;;;;;38.42;22.99;98138.25;4934971;29;20032;-74
2022/06/22 10:53:26;;;;;;;9.85;4.38;;;;;;;38.20;22.94;98139.91;4919547;29;20075;-74
2022/06/22 10:56:03;;;;;;;9.27;4.88;;;;;;;38.00;23.13;98133.88;4935139;29;20032;-74
2022/06/22 10:58:35;;;;;;;10.30;4.38;;;;;;;37.90;23.29;98134.13;4919300;29;20114;-74
2022/06/22 11:01:31;;;;;;;9.95;4.40;;;;;;;37.82;23.17;98143.84;4919321;29;20032;-74
2022/06/22 11:04:35;;;;;;;9.13;4.22;;;;;;;37.74;23.41;98152.78;4934946;29;20036;-75
2022/06/22 11:07:38;;;;;;;7.13;3.95;;;;;;;37.81;23.77;98142.25;4897104;29;20044;-75
2022/06/22 11:10:11;;;;;;;8.80;4.20;;;;;;;37.82;23.53;98148.50;4897132;29;20037;-77
2022/06/22 11:12:48;;;;;;;9.18;4.18;;;;;;;37.82;23.99;98134.88;4882382;29;20052;-75
2022/06/22 11:15:28;;;;;;;11.40;4.38;;;;;;;37.86;23.95;98133.16;4897609;29;20063;-74
2022/06/22 11:18:17;;;;;;;12.13;4.35;;;;;;;37.96;23.52;98141.03;4902748;29;20039;-74
2022/06/22 11:21:14;;;;;;;10.15;4.40;;;;;;;38.06;23.70;98125.56;4922029;29;20023;-74
2022/06/22 11:23:45;;;;;;;8.32;3.97;;;;;;;38.11;23.78;98119.97;4953573;29;20039;-75
2022/06/22 11:32:15;;;;;;;9.05;4.40;;;;;;;37.96;23.62;98129.34;4953876;29;20090;-74
2022/06/22 11:35:04;;;;;;;8.23;4.07;;;;;;;37.86;23.75;98115.97;4937457;28;20028;-74
2022/06/22 11:37:42;;;;;;;9.50;4.00;;;;;;;37.66;24.06;98110.72;4937503;29;20038;-74
2022/06/22 11:40:26;;;;;;;10.20;4.70;;;;;;;37.51;23.84;98102.94;4938024;29;20059;-75
2022/06/22 11:43:19;;;;;;;12.27;4.50;;;;;;;37.38;24.06;98101.09;4944580;28;20407;-75
2022/06/22 11:46:10;;;;;;;7.55;4.50;;;;;;;37.21;24.50;98088.13;5012803;28;20025;-75
2022/06/22 11:48:56;;;;;;;11.98;5.05;;;;;;;37.16;24.72;98088.25;5013345;28;20124;-73
2022/06/22 11:51:42;;;;;;;15.52;5.63;;;;;;;37.10;25.12;98082.94;5013523;28;20037;-73
2022/06/22 11:54:12;;;;;;;10.38;4.90;;;;;;;37.04;25.31;98078.72;5013762;28;20038;-73
2022/06/22 11:56:57;;;;;;;11.77;4.85;;;;;;;37.01;25.42;98092.13;5012363;28;20486;-74
2022/06/22 11:59:35;;;;;;;10.43;5.50;;;;;;;36.98;25.45;98092.75;5012730;28;20030;-74
2022/06/22 12:02:21;;;;;;;8.43;5.10;;;;;;;36.90;25.52;98094.28;5013527;28;20040;-75
2022/06/22 12:05:28;;;;;;;12.98;5.28;;;;;;;36.87;25.44;98082.09;5012401;28;20061;-76
2022/06/22 12:08:23;;;;;;;8.25;4.95;;;;;;;36.83;25.68;98083.81;5013564;28;20042;-77
2022/06/22 12:10:49;;;;;;;12.07;6.20;;;;;;;36.80;26.12;98079.00;4972276;28;20031;-74
2022/06/22 12:13:29;;;;;;;8.27;5.50;;;;;;;36.78;25.94;98083.13;4955940;28;20043;-77
2022/06/22 12:16:11;;;;;;;10.23;5.20;;;;;;;36.76;26.19;98086.16;4956001;28;20177;-74
2022/06/22 12:18:43;;;;;;;10.27;5.30;;;;;;;36.70;26.03;98074.53;4972114;28;20042;-74
2022/06/22 12:21:09;;;;;;;9.38;5.35;;;;;;;36.67;25.82;98072.44;4972135;28;20049;-73
2022/06/22 12:23:53;;;;;;;10.15;5.50;;;;;;;36.63;25.99;98076.88;4972018;28;20039;-73
2022/06/22 12:26:42;;;;;;;12.23;5.50;;;;;;;36.70;25.74;98068.31;4972180;28;20031;-73
2022/06/22 12:29:13;;;;;;;12.77;5.25;;;;;;;36.63;25.53;98060.56;4971877;28;20319;-74
2022/06/22 12:31:41;;;;;;;8.75;5.35;;;;;;;36.54;25.78;98060.47;4972060;28;20030;-73
2022/06/22 12:34:25;;;;;;;8.95;5.90;;;;;;;36.49;25.84;98066.03;4972067;28;20066;-74
2022/06/22 12:36:53;;;;;;;8.25;5.75;;;;;;;36.47;26.00;98068.25;4972022;28;20039;-74
2022/06/22 12:39:25;;;;;;;11.45;5.93;;;;;;;36.47;26.02;98062.81;4972015;28;20173;-74